CheckWX is a tool to help pilots better visualize weather data.  It is not intended as a substitute for an official pre-flight weather briefing.

13:06:18 UTC

KAVX METAR
Catalina Airport
Avalon, California, USA
Current

15 mins ago

KAVX 181251Z AUTO 06003KT 10SM OVC006 15/13 A2991 RMK AO2 CIG 003V009 SLP115 T01500128
Observed
Aug-18 @ 12:51 UTC
Wind
  • 060° at 3 KTS
Visibility
10 SM
Flight Rules
IFR
Cloud Levels
  • Overcast at 600' AGL
Temperature
15°C / 59°F
Dewpoint
13°C / 55°F
Humidity
88%
Altimeter
29.91" Hg
Pressure
1012.92 hPa
Previous

1 hour ago

KAVX 181151Z AUTO 08004KT 10SM OVC005 15/13 A2990 RMK AO2 CIG 003V008 SLP112 T01500128 10167 20150 56003
Observed
Aug-18 @ 11:51 UTC
Wind
  • 080° at 4 KTS
Visibility
10 SM
Flight Rules
IFR
Cloud Levels
  • Overcast at 500' AGL
Temperature
15°C / 59°F
Dewpoint
13°C / 55°F
Humidity
88%
Altimeter
29.9" Hg
Pressure
1012.52 hPa
Previous

2 hours ago

KAVX 181051Z AUTO 08004KT 10SM OVC004 15/13 A2990 RMK AO2 SLP112 T01500128
Observed
Aug-18 @ 10:51 UTC
Wind
  • 080° at 4 KTS
Visibility
10 SM
Flight Rules
LIFR
Cloud Levels
  • Overcast at 400' AGL
Temperature
15°C / 59°F
Dewpoint
13°C / 55°F
Humidity
88%
Altimeter
29.9" Hg
Pressure
1012.52 hPa